Terminal Aerodrome Forecast
Issued by NWS Greer, SC

Home | Current Version | Previous Version | Text Only | Print | Product List | Glossary On
Versions: 1 2 3 4 5 6 7 8 9 10 11 12 13 14 15 16 17
268
FTUS42 KGSP 101738
TAFGSP
TAF
KGSP 101738Z 1018/1118 20003KT P6SM FEW250
     FM110500 08003KT P6SM SCT200
     FM111600 11005KT P6SM SCT045=

USA.gov is the U.S. government's official web portal to all federal, state and local government web resources and services.